sensor_id;sensor_type;location;lat;lon;timestamp;temperature;humidity
16417;DHT22;8317;52.186;5.688;2023-04-06T00:00:14;1.70;99.90
16417;DHT22;8317;52.186;5.688;2023-04-06T00:02:41;1.70;99.90
16417;DHT22;8317;52.186;5.688;2023-04-06T00:05:09;1.70;99.90
16417;DHT22;8317;52.186;5.688;2023-04-06T00:07:36;1.60;99.90
16417;DHT22;8317;52.186;5.688;2023-04-06T00:10:04;1.60;99.90
16417;DHT22;8317;52.186;5.688;2023-04-06T00:12:31;1.80;99.90
16417;DHT22;8317;52.186;5.688;2023-04-06T00:14:58;2.00;99.90
16417;DHT22;8317;52.186;5.688;2023-04-06T00:17:26;2.10;99.90
16417;DHT22;8317;52.186;5.688;2023-04-06T00:19:53;2.20;99.90
16417;DHT22;8317;52.186;5.688;2023-04-06T00:22:22;2.30;99.90
16417;DHT22;8317;52.186;5.688;2023-04-06T00:24:49;2.40;99.90
16417;DHT22;8317;52.186;5.688;2023-04-06T00:27:16;2.40;99.90
16417;DHT22;8317;52.186;5.688;2023-04-06T00:29:44;2.40;99.90
16417;DHT22;8317;52.186;5.688;2023-04-06T00:32:11;2.30;99.90
16417;DHT22;8317;52.186;5.688;2023-04-06T00:34:38;2.40;99.90
16417;DHT22;8317;52.186;5.688;2023-04-06T00:37:05;2.40;99.90
16417;DHT22;8317;52.186;5.688;2023-04-06T00:39:33;2.40;99.90
16417;DHT22;8317;52.186;5.688;2023-04-06T00:42:11;2.40;99.90
16417;DHT22;8317;52.186;5.688;2023-04-06T00:44:39;2.40;99.90
16417;DHT22;8317;52.186;5.688;2023-04-06T00:47:06;2.50;99.90
16417;DHT22;8317;52.186;5.688;2023-04-06T00:49:34;2.50;99.90
16417;DHT22;8317;52.186;5.688;2023-04-06T00:52:01;2.50;99.90
16417;DHT22;8317;52.186;5.688;2023-04-06T00:54:28;2.50;99.90
16417;DHT22;8317;52.186;5.688;2023-04-06T00:56:57;2.50;99.90
16417;DHT22;8317;52.186;5.688;2023-04-06T00:59:24;2.50;99.90
16417;DHT22;8317;52.186;5.688;2023-04-06T01:01:51;2.40;99.90
16417;DHT22;8317;52.186;5.688;2023-04-06T01:04:18;2.40;99.90
16417;DHT22;8317;52.186;5.688;2023-04-06T01:06:48;2.40;99.90
16417;DHT22;8317;52.186;5.688;2023-04-06T01:09:15;2.30;99.90
16417;DHT22;8317;52.186;5.688;2023-04-06T01:11:42;2.20;99.90
16417;DHT22;8317;52.186;5.688;2023-04-06T01:14:10;2.20;99.90
16417;DHT22;8317;52.186;5.688;2023-04-06T01:16:37;2.20;99.90
16417;DHT22;8317;52.186;5.688;2023-04-06T01:19:07;2.20;99.90
16417;DHT22;8317;52.186;5.688;2023-04-06T01:21:35;2.10;99.90
16417;DHT22;8317;52.186;5.688;2023-04-06T01:24:04;2.10;99.90
16417;DHT22;8317;52.186;5.688;2023-04-06T01:26:32;2.10;99.90
16417;DHT22;8317;52.186;5.688;2023-04-06T01:28:59;2.20;99.90
16417;DHT22;8317;52.186;5.688;2023-04-06T01:31:26;2.20;99.90
16417;DHT22;8317;52.186;5.688;2023-04-06T01:33:53;2.20;99.90
16417;DHT22;8317;52.186;5.688;2023-04-06T01:36:20;2.10;99.90
16417;DHT22;8317;52.186;5.688;2023-04-06T01:38:48;2.20;99.90
16417;DHT22;8317;52.186;5.688;2023-04-06T01:41:16;2.20;99.90
16417;DHT22;8317;52.186;5.688;2023-04-06T01:43:44;2.20;99.90
16417;DHT22;8317;52.186;5.688;2023-04-06T01:46:11;2.20;99.90
16417;DHT22;8317;52.186;5.688;2023-04-06T01:48:38;2.10;99.90
16417;DHT22;8317;52.186;5.688;2023-04-06T01:51:05;2.10;99.90
16417;DHT22;8317;52.186;5.688;2023-04-06T01:53:32;2.10;99.90
16417;DHT22;8317;52.186;5.688;2023-04-06T01:55:59;2.10;99.90
16417;DHT22;8317;52.186;5.688;2023-04-06T01:58:27;2.10;99.90
16417;DHT22;8317;52.186;5.688;2023-04-06T02:00:54;2.10;99.90
16417;DHT22;8317;52.186;5.688;2023-04-06T02:03:21;2.00;99.90
16417;DHT22;8317;52.186;5.688;2023-04-06T02:05:48;2.10;99.90
16417;DHT22;8317;52.186;5.688;2023-04-06T02:08:15;2.10;99.90
16417;DHT22;8317;52.186;5.688;2023-04-06T02:10:42;2.10;99.90
16417;DHT22;8317;52.186;5.688;2023-04-06T02:13:09;2.00;99.90
16417;DHT22;8317;52.186;5.688;2023-04-06T02:15:38;2.10;99.90
16417;DHT22;8317;52.186;5.688;2023-04-06T02:18:05;2.10;99.90
16417;DHT22;8317;52.186;5.688;2023-04-06T02:20:32;2.10;99.90
16417;DHT22;8317;52.186;5.688;2023-04-06T02:22:59;2.10;99.90
16417;DHT22;8317;52.186;5.688;2023-04-06T02:25:26;2.10;99.90
16417;DHT22;8317;52.186;5.688;2023-04-06T02:27:53;2.10;99.90
16417;DHT22;8317;52.186;5.688;2023-04-06T02:30:20;2.20;99.90
16417;DHT22;8317;52.186;5.688;2023-04-06T02:32:49;2.20;99.90
16417;DHT22;8317;52.186;5.688;2023-04-06T02:35:16;2.20;99.90
16417;DHT22;8317;52.186;5.688;2023-04-06T02:37:43;2.20;99.90
16417;DHT22;8317;52.186;5.688;2023-04-06T02:40:10;2.20;99.90
16417;DHT22;8317;52.186;5.688;2023-04-06T02:42:37;2.20;99.90
16417;DHT22;8317;52.186;5.688;2023-04-06T02:45:05;2.20;99.90
16417;DHT22;8317;52.186;5.688;2023-04-06T02:47:33;2.20;99.90
16417;DHT22;8317;52.186;5.688;2023-04-06T02:50:01;2.20;99.90
16417;DHT22;8317;52.186;5.688;2023-04-06T02:52:28;2.20;99.90
16417;DHT22;8317;52.186;5.688;2023-04-06T02:54:55;2.20;99.90
16417;DHT22;8317;52.186;5.688;2023-04-06T02:57:22;2.30;99.90
16417;DHT22;8317;52.186;5.688;2023-04-06T02:59:49;2.30;99.90
16417;DHT22;8317;52.186;5.688;2023-04-06T03:02:16;2.30;99.90
16417;DHT22;8317;52.186;5.688;2023-04-06T03:04:44;2.30;99.90
16417;DHT22;8317;52.186;5.688;2023-04-06T03:07:12;2.40;99.90
16417;DHT22;8317;52.186;5.688;2023-04-06T03:09:39;2.40;99.90
16417;DHT22;8317;52.186;5.688;2023-04-06T03:12:06;2.50;99.90
16417;DHT22;8317;52.186;5.688;2023-04-06T03:14:33;2.50;99.90
16417;DHT22;8317;52.186;5.688;2023-04-06T03:17:00;2.50;99.90
16417;DHT22;8317;52.186;5.688;2023-04-06T03:19:27;2.50;99.90
16417;DHT22;8317;52.186;5.688;2023-04-06T03:21:54;2.50;99.90
16417;DHT22;8317;52.186;5.688;2023-04-06T03:24:23;2.60;99.90
16417;DHT22;8317;52.186;5.688;2023-04-06T03:26:50;2.50;99.90
16417;DHT22;8317;52.186;5.688;2023-04-06T03:29:17;2.60;99.90
16417;DHT22;8317;52.186;5.688;2023-04-06T03:31:44;2.60;99.90
16417;DHT22;8317;52.186;5.688;2023-04-06T03:34:11;2.60;99.90
16417;DHT22;8317;52.186;5.688;2023-04-06T03:36:37;2.70;99.90
16417;DHT22;8317;52.186;5.688;2023-04-06T03:39:05;2.70;99.90
16417;DHT22;8317;52.186;5.688;2023-04-06T03:41:33;2.70;99.90
16417;DHT22;8317;52.186;5.688;2023-04-06T03:44:00;2.80;99.90
16417;DHT22;8317;52.186;5.688;2023-04-06T03:46:27;2.80;99.90
16417;DHT22;8317;52.186;5.688;2023-04-06T03:48:54;2.80;99.90
16417;DHT22;8317;52.186;5.688;2023-04-06T03:51:21;2.80;99.90
16417;DHT22;8317;52.186;5.688;2023-04-06T03:53:48;2.80;99.90
16417;DHT22;8317;52.186;5.688;2023-04-06T03:56:15;2.70;99.90
16417;DHT22;8317;52.186;5.688;2023-04-06T03:58:43;2.70;99.90
16417;DHT22;8317;52.186;5.688;2023-04-06T04:01:11;2.70;99.90
16417;DHT22;8317;52.186;5.688;2023-04-06T04:03:38;2.70;99.90
16417;DHT22;8317;52.186;5.688;2023-04-06T04:06:05;2.70;99.90
16417;DHT22;8317;52.186;5.688;2023-04-06T04:08:32;2.70;99.90
16417;DHT22;8317;52.186;5.688;2023-04-06T04:10:59;2.80;99.90
16417;DHT22;8317;52.186;5.688;2023-04-06T04:13:26;2.80;99.90
16417;DHT22;8317;52.186;5.688;2023-04-06T04:15:54;2.80;99.90
16417;DHT22;8317;52.186;5.688;2023-04-06T04:18:21;2.80;99.90
16417;DHT22;8317;52.186;5.688;2023-04-06T04:20:48;2.80;99.90
16417;DHT22;8317;52.186;5.688;2023-04-06T04:23:15;2.90;99.90
16417;DHT22;8317;52.186;5.688;2023-04-06T04:25:43;2.90;99.90
16417;DHT22;8317;52.186;5.688;2023-04-06T04:28:10;3.00;99.90
16417;DHT22;8317;52.186;5.688;2023-04-06T04:30:37;3.10;99.90
16417;DHT22;8317;52.186;5.688;2023-04-06T04:33:06;3.20;99.90
16417;DHT22;8317;52.186;5.688;2023-04-06T04:35:33;3.20;99.90
16417;DHT22;8317;52.186;5.688;2023-04-06T04:38:00;3.30;99.90
16417;DHT22;8317;52.186;5.688;2023-04-06T04:40:27;3.30;99.90
16417;DHT22;8317;52.186;5.688;2023-04-06T04:42:54;3.30;99.90
16417;DHT22;8317;52.186;5.688;2023-04-06T04:45:21;3.40;99.90
16417;DHT22;8317;52.186;5.688;2023-04-06T04:47:48;3.40;99.90
16417;DHT22;8317;52.186;5.688;2023-04-06T04:50:16;3.50;99.90
16417;DHT22;8317;52.186;5.688;2023-04-06T04:52:43;3.50;99.90
16417;DHT22;8317;52.186;5.688;2023-04-06T04:55:10;3.50;99.90
16417;DHT22;8317;52.186;5.688;2023-04-06T04:57:37;3.50;99.90
16417;DHT22;8317;52.186;5.688;2023-04-06T05:00:05;3.60;99.90
16417;DHT22;8317;52.186;5.688;2023-04-06T05:02:32;3.60;99.90
16417;DHT22;8317;52.186;5.688;2023-04-06T05:04:59;3.60;99.90
16417;DHT22;8317;52.186;5.688;2023-04-06T05:07:27;3.60;99.90
16417;DHT22;8317;52.186;5.688;2023-04-06T05:09:54;3.60;99.90
16417;DHT22;8317;52.186;5.688;2023-04-06T05:12:21;3.70;99.90
16417;DHT22;8317;52.186;5.688;2023-04-06T05:14:48;3.70;99.90
16417;DHT22;8317;52.186;5.688;2023-04-06T05:17:15;3.70;99.90
16417;DHT22;8317;52.186;5.688;2023-04-06T05:19:42;3.70;99.90
16417;DHT22;8317;52.186;5.688;2023-04-06T05:22:09;3.80;99.90
16417;DHT22;8317;52.186;5.688;2023-04-06T05:24:38;3.70;99.90
16417;DHT22;8317;52.186;5.688;2023-04-06T05:27:05;3.80;99.90
16417;DHT22;8317;52.186;5.688;2023-04-06T05:29:33;3.80;99.90
16417;DHT22;8317;52.186;5.688;2023-04-06T05:32:00;3.90;99.90
16417;DHT22;8317;52.186;5.688;2023-04-06T05:34:27;3.90;99.90
16417;DHT22;8317;52.186;5.688;2023-04-06T05:36:54;3.90;99.90
16417;DHT22;8317;52.186;5.688;2023-04-06T05:39:21;4.00;99.90
16417;DHT22;8317;52.186;5.688;2023-04-06T05:41:50;4.00;99.90
16417;DHT22;8317;52.186;5.688;2023-04-06T05:44:16;4.10;99.90
16417;DHT22;8317;52.186;5.688;2023-04-06T05:46:44;4.10;99.90
16417;DHT22;8317;52.186;5.688;2023-04-06T05:49:11;4.20;99.90
16417;DHT22;8317;52.186;5.688;2023-04-06T05:51:38;4.30;99.90
16417;DHT22;8317;52.186;5.688;2023-04-06T05:54:05;4.40;99.90
16417;DHT22;8317;52.186;5.688;2023-04-06T05:56:32;4.40;99.90
16417;DHT22;8317;52.186;5.688;2023-04-06T05:59:00;4.50;99.90
16417;DHT22;8317;52.186;5.688;2023-04-06T06:01:27;4.60;99.90
16417;DHT22;8317;52.186;5.688;2023-04-06T06:03:54;4.70;99.90
16417;DHT22;8317;52.186;5.688;2023-04-06T06:06:21;4.70;99.90
16417;DHT22;8317;52.186;5.688;2023-04-06T06:08:48;4.80;99.90
16417;DHT22;8317;52.186;5.688;2023-04-06T06:11:15;5.00;99.90
16417;DHT22;8317;52.186;5.688;2023-04-06T06:13:42;5.00;99.90
16417;DHT22;8317;52.186;5.688;2023-04-06T06:16:10;5.20;99.90
16417;DHT22;8317;52.186;5.688;2023-04-06T06:18:37;5.30;99.90
16417;DHT22;8317;52.186;5.688;2023-04-06T06:21:04;5.50;99.90
16417;DHT22;8317;52.186;5.688;2023-04-06T06:23:31;5.60;99.90
16417;DHT22;8317;52.186;5.688;2023-04-06T06:25:58;5.70;99.90
16417;DHT22;8317;52.186;5.688;2023-04-06T06:28:26;5.80;99.90
16417;DHT22;8317;52.186;5.688;2023-04-06T06:30:53;5.90;99.90
16417;DHT22;8317;52.186;5.688;2023-04-06T06:33:22;6.00;99.90
16417;DHT22;8317;52.186;5.688;2023-04-06T06:35:49;6.00;99.90
16417;DHT22;8317;52.186;5.688;2023-04-06T06:38:16;6.10;99.90
16417;DHT22;8317;52.186;5.688;2023-04-06T06:40:45;6.20;99.90
16417;DHT22;8317;52.186;5.688;2023-04-06T06:43:12;6.30;99.90
16417;DHT22;8317;52.186;5.688;2023-04-06T06:45:39;6.40;99.90
16417;DHT22;8317;52.186;5.688;2023-04-06T06:48:06;6.40;99.90
16417;DHT22;8317;52.186;5.688;2023-04-06T06:50:34;6.60;99.90
16417;DHT22;8317;52.186;5.688;2023-04-06T06:53:01;6.70;99.90
16417;DHT22;8317;52.186;5.688;2023-04-06T06:55:28;6.70;99.90
16417;DHT22;8317;52.186;5.688;2023-04-06T06:57:55;6.70;99.90
16417;DHT22;8317;52.186;5.688;2023-04-06T07:00:22;6.70;99.90
16417;DHT22;8317;52.186;5.688;2023-04-06T07:02:50;6.80;99.90
16417;DHT22;8317;52.186;5.688;2023-04-06T07:05:17;6.80;99.90
16417;DHT22;8317;52.186;5.688;2023-04-06T07:07:45;6.80;99.90
16417;DHT22;8317;52.186;5.688;2023-04-06T07:10:12;6.80;99.90
16417;DHT22;8317;52.186;5.688;2023-04-06T07:12:39;6.90;99.90
16417;DHT22;8317;52.186;5.688;2023-04-06T07:15:07;7.00;99.90
16417;DHT22;8317;52.186;5.688;2023-04-06T07:17:34;7.00;99.90
16417;DHT22;8317;52.186;5.688;2023-04-06T07:20:01;7.10;99.90
16417;DHT22;8317;52.186;5.688;2023-04-06T07:22:29;7.30;99.90
16417;DHT22;8317;52.186;5.688;2023-04-06T07:24:57;7.40;99.90
16417;DHT22;8317;52.186;5.688;2023-04-06T07:27:25;7.60;99.90
16417;DHT22;8317;52.186;5.688;2023-04-06T07:29:51;7.70;99.90
16417;DHT22;8317;52.186;5.688;2023-04-06T07:32:18;8.00;99.90
16417;DHT22;8317;52.186;5.688;2023-04-06T07:34:45;8.30;99.90
16417;DHT22;8317;52.186;5.688;2023-04-06T07:37:13;8.40;99.90
16417;DHT22;8317;52.186;5.688;2023-04-06T07:39:39;8.40;99.90
16417;DHT22;8317;52.186;5.688;2023-04-06T07:42:08;8.50;99.90
16417;DHT22;8317;52.186;5.688;2023-04-06T07:44:35;8.40;99.90
16417;DHT22;8317;52.186;5.688;2023-04-06T07:47:02;8.50;99.90
16417;DHT22;8317;52.186;5.688;2023-04-06T07:49:29;8.40;99.90
16417;DHT22;8317;52.186;5.688;2023-04-06T07:51:57;8.40;99.90
16417;DHT22;8317;52.186;5.688;2023-04-06T07:54:25;8.40;99.90
16417;DHT22;8317;52.186;5.688;2023-04-06T07:56:52;8.30;99.90
16417;DHT22;8317;52.186;5.688;2023-04-06T07:59:20;8.20;99.90
16417;DHT22;8317;52.186;5.688;2023-04-06T08:01:47;8.20;99.90
16417;DHT22;8317;52.186;5.688;2023-04-06T08:04:14;8.10;99.90
16417;DHT22;8317;52.186;5.688;2023-04-06T08:06:41;8.20;99.90
16417;DHT22;8317;52.186;5.688;2023-04-06T08:09:08;8.20;99.90
16417;DHT22;8317;52.186;5.688;2023-04-06T08:11:35;8.30;99.90
16417;DHT22;8317;52.186;5.688;2023-04-06T08:14:02;8.20;99.90
16417;DHT22;8317;52.186;5.688;2023-04-06T08:16:30;8.40;99.90
16417;DHT22;8317;52.186;5.688;2023-04-06T08:18:57;8.50;99.90
16417;DHT22;8317;52.186;5.688;2023-04-06T08:21:24;8.50;99.90
16417;DHT22;8317;52.186;5.688;2023-04-06T08:23:51;8.60;99.90
16417;DHT22;8317;52.186;5.688;2023-04-06T08:26:18;8.60;99.90
16417;DHT22;8317;52.186;5.688;2023-04-06T08:28:45;8.70;99.90
16417;DHT22;8317;52.186;5.688;2023-04-06T08:31:12;8.70;99.90
16417;DHT22;8317;52.186;5.688;2023-04-06T08:33:40;8.70;99.90
16417;DHT22;8317;52.186;5.688;2023-04-06T08:36:09;8.80;99.90
16417;DHT22;8317;52.186;5.688;2023-04-06T08:38:36;8.80;99.90
16417;DHT22;8317;52.186;5.688;2023-04-06T08:41:10;8.90;99.90
16417;DHT22;8317;52.186;5.688;2023-04-06T08:43:42;8.90;99.90
16417;DHT22;8317;52.186;5.688;2023-04-06T08:46:10;9.00;99.90
16417;DHT22;8317;52.186;5.688;2023-04-06T08:48:40;9.00;99.90
16417;DHT22;8317;52.186;5.688;2023-04-06T08:51:08;9.00;99.90
16417;DHT22;8317;52.186;5.688;2023-04-06T08:53:35;9.10;99.90
16417;DHT22;8317;52.186;5.688;2023-04-06T08:56:04;9.00;99.90
16417;DHT22;8317;52.186;5.688;2023-04-06T08:58:35;9.10;99.90
16417;DHT22;8317;52.186;5.688;2023-04-06T09:01:06;9.20;99.90
16417;DHT22;8317;52.186;5.688;2023-04-06T09:03:37;9.20;99.90
16417;DHT22;8317;52.186;5.688;2023-04-06T09:06:07;9.20;99.90
16417;DHT22;8317;52.186;5.688;2023-04-06T09:08:35;9.10;99.90
16417;DHT22;8317;52.186;5.688;2023-04-06T09:11:02;9.20;99.90
16417;DHT22;8317;52.186;5.688;2023-04-06T09:13:29;9.30;99.90
16417;DHT22;8317;52.186;5.688;2023-04-06T09:16:01;9.30;99.90
16417;DHT22;8317;52.186;5.688;2023-04-06T09:18:28;9.30;99.90
16417;DHT22;8317;52.186;5.688;2023-04-06T09:21:00;9.60;99.90
16417;DHT22;8317;52.186;5.688;2023-04-06T09:23:29;9.70;99.90
16417;DHT22;8317;52.186;5.688;2023-04-06T09:26:06;9.70;99.90
16417;DHT22;8317;52.186;5.688;2023-04-06T09:28:44;9.70;99.90
16417;DHT22;8317;52.186;5.688;2023-04-06T09:31:12;10.00;99.90
16417;DHT22;8317;52.186;5.688;2023-04-06T09:33:42;10.10;99.90
16417;DHT22;8317;52.186;5.688;2023-04-06T09:36:09;10.20;99.90
16417;DHT22;8317;52.186;5.688;2023-04-06T09:38:52;10.20;99.90
16417;DHT22;8317;52.186;5.688;2023-04-06T09:41:24;10.20;99.90
16417;DHT22;8317;52.186;5.688;2023-04-06T09:43:51;10.10;99.90
16417;DHT22;8317;52.186;5.688;2023-04-06T09:46:21;10.30;99.90
16417;DHT22;8317;52.186;5.688;2023-04-06T09:48:49;10.30;99.90
16417;DHT22;8317;52.186;5.688;2023-04-06T09:51:18;10.20;99.90
16417;DHT22;8317;52.186;5.688;2023-04-06T09:53:50;10.20;99.90
16417;DHT22;8317;52.186;5.688;2023-04-06T09:56:23;10.30;99.90
16417;DHT22;8317;52.186;5.688;2023-04-06T09:58:57;10.40;99.90
16417;DHT22;8317;52.186;5.688;2023-04-06T10:01:29;10.40;99.90
16417;DHT22;8317;52.186;5.688;2023-04-06T10:04:10;10.40;99.90
16417;DHT22;8317;52.186;5.688;2023-04-06T10:06:39;10.50;99.90
16417;DHT22;8317;52.186;5.688;2023-04-06T10:09:08;10.70;99.90
16417;DHT22;8317;52.186;5.688;2023-04-06T10:11:35;10.70;99.90
16417;DHT22;8317;52.186;5.688;2023-04-06T10:14:02;10.50;99.90
16417;DHT22;8317;52.186;5.688;2023-04-06T10:16:29;10.50;99.90
16417;DHT22;8317;52.186;5.688;2023-04-06T10:19:02;10.50;99.90
16417;DHT22;8317;52.186;5.688;2023-04-06T10:21:32;10.40;99.90
16417;DHT22;8317;52.186;5.688;2023-04-06T10:24:01;10.20;99.90
16417;DHT22;8317;52.186;5.688;2023-04-06T10:26:30;10.10;99.90
16417;DHT22;8317;52.186;5.688;2023-04-06T10:29:02;10.00;99.90
16417;DHT22;8317;52.186;5.688;2023-04-06T10:31:30;10.20;99.90
16417;DHT22;8317;52.186;5.688;2023-04-06T10:33:58;10.30;99.90
16417;DHT22;8317;52.186;5.688;2023-04-06T10:36:26;10.40;99.90
16417;DHT22;8317;52.186;5.688;2023-04-06T10:38:56;10.50;99.90
16417;DHT22;8317;52.186;5.688;2023-04-06T10:41:23;10.50;99.90
16417;DHT22;8317;52.186;5.688;2023-04-06T10:43:56;10.60;99.90
16417;DHT22;8317;52.186;5.688;2023-04-06T10:46:27;10.90;99.90
16417;DHT22;8317;52.186;5.688;2023-04-06T10:48:55;10.90;99.90
16417;DHT22;8317;52.186;5.688;2023-04-06T10:51:25;11.00;99.90
16417;DHT22;8317;52.186;5.688;2023-04-06T10:53:54;11.20;99.90
16417;DHT22;8317;52.186;5.688;2023-04-06T10:56:23;11.30;99.90
16417;DHT22;8317;52.186;5.688;2023-04-06T10:58:53;11.40;99.90
16417;DHT22;8317;52.186;5.688;2023-04-06T11:01:23;11.20;99.90
16417;DHT22;8317;52.186;5.688;2023-04-06T11:03:53;11.00;99.90
16417;DHT22;8317;52.186;5.688;2023-04-06T11:06:22;10.70;99.90
16417;DHT22;8317;52.186;5.688;2023-04-06T11:08:49;10.70;99.90
16417;DHT22;8317;52.186;5.688;2023-04-06T11:11:17;10.70;99.90
16417;DHT22;8317;52.186;5.688;2023-04-06T11:13:46;10.50;99.90
16417;DHT22;8317;52.186;5.688;2023-04-06T11:16:14;10.50;99.90
16417;DHT22;8317;52.186;5.688;2023-04-06T11:18:53;10.60;99.90
16417;DHT22;8317;52.186;5.688;2023-04-06T11:21:36;10.60;99.90
16417;DHT22;8317;52.186;5.688;2023-04-06T11:24:08;10.70;99.90
16417;DHT22;8317;52.186;5.688;2023-04-06T11:26:39;10.50;99.90
16417;DHT22;8317;52.186;5.688;2023-04-06T11:29:07;10.50;99.90
16417;DHT22;8317;52.186;5.688;2023-04-06T11:31:41;10.40;99.90
16417;DHT22;8317;52.186;5.688;2023-04-06T11:34:16;10.40;99.90
16417;DHT22;8317;52.186;5.688;2023-04-06T11:36:44;10.50;99.90
16417;DHT22;8317;52.186;5.688;2023-04-06T11:39:11;10.30;99.90
16417;DHT22;8317;52.186;5.688;2023-04-06T11:41:38;10.10;99.90
16417;DHT22;8317;52.186;5.688;2023-04-06T11:44:06;10.00;99.90
16417;DHT22;8317;52.186;5.688;2023-04-06T11:46:33;10.00;99.90
16417;DHT22;8317;52.186;5.688;2023-04-06T11:49:01;9.90;99.90
16417;DHT22;8317;52.186;5.688;2023-04-06T11:51:30;9.70;99.90
16417;DHT22;8317;52.186;5.688;2023-04-06T11:54:02;9.60;99.90
16417;DHT22;8317;52.186;5.688;2023-04-06T11:56:29;9.70;99.90
16417;DHT22;8317;52.186;5.688;2023-04-06T11:58:57;9.50;99.90
16417;DHT22;8317;52.186;5.688;2023-04-06T12:01:25;9.40;99.90
16417;DHT22;8317;52.186;5.688;2023-04-06T12:03:52;9.40;99.90
16417;DHT22;8317;52.186;5.688;2023-04-06T12:06:20;9.20;99.90
16417;DHT22;8317;52.186;5.688;2023-04-06T12:08:48;9.20;99.90
16417;DHT22;8317;52.186;5.688;2023-04-06T12:11:15;9.20;99.90
16417;DHT22;8317;52.186;5.688;2023-04-06T12:13:42;9.20;99.90
16417;DHT22;8317;52.186;5.688;2023-04-06T12:16:09;9.20;99.90
16417;DHT22;8317;52.186;5.688;2023-04-06T12:18:36;9.30;99.90
16417;DHT22;8317;52.186;5.688;2023-04-06T12:21:03;9.30;99.90
16417;DHT22;8317;52.186;5.688;2023-04-06T12:23:31;9.20;99.90
16417;DHT22;8317;52.186;5.688;2023-04-06T12:25:59;9.10;99.90
16417;DHT22;8317;52.186;5.688;2023-04-06T12:28:27;9.00;99.90
16417;DHT22;8317;52.186;5.688;2023-04-06T12:30:55;9.10;99.90
16417;DHT22;8317;52.186;5.688;2023-04-06T12:33:22;9.10;99.90
16417;DHT22;8317;52.186;5.688;2023-04-06T12:35:49;9.10;99.90
16417;DHT22;8317;52.186;5.688;2023-04-06T12:38:16;9.00;99.90
16417;DHT22;8317;52.186;5.688;2023-04-06T12:40:43;8.90;99.90
16417;DHT22;8317;52.186;5.688;2023-04-06T12:43:11;8.90;99.90
16417;DHT22;8317;52.186;5.688;2023-04-06T12:45:39;8.90;99.90
16417;DHT22;8317;52.186;5.688;2023-04-06T12:48:07;8.90;99.90
16417;DHT22;8317;52.186;5.688;2023-04-06T12:50:34;9.00;99.90
16417;DHT22;8317;52.186;5.688;2023-04-06T12:53:01;9.00;99.90
16417;DHT22;8317;52.186;5.688;2023-04-06T12:55:30;9.00;99.90
16417;DHT22;8317;52.186;5.688;2023-04-06T12:57:59;9.00;99.90
16417;DHT22;8317;52.186;5.688;2023-04-06T13:00:28;9.10;99.90
16417;DHT22;8317;52.186;5.688;2023-04-06T13:02:56;8.90;99.90
16417;DHT22;8317;52.186;5.688;2023-04-06T13:05:23;8.90;99.90
16417;DHT22;8317;52.186;5.688;2023-04-06T13:07:50;8.90;99.90
16417;DHT22;8317;52.186;5.688;2023-04-06T13:10:17;8.70;99.90
16417;DHT22;8317;52.186;5.688;2023-04-06T13:12:44;8.70;99.90
16417;DHT22;8317;52.186;5.688;2023-04-06T13:15:11;8.60;99.90
16417;DHT22;8317;52.186;5.688;2023-04-06T13:17:40;8.60;99.90
16417;DHT22;8317;52.186;5.688;2023-04-06T13:20:07;8.60;99.90
16417;DHT22;8317;52.186;5.688;2023-04-06T13:22:35;8.70;99.90
16417;DHT22;8317;52.186;5.688;2023-04-06T13:25:02;8.60;99.90
16417;DHT22;8317;52.186;5.688;2023-04-06T13:27:29;8.70;99.90
16417;DHT22;8317;52.186;5.688;2023-04-06T13:29:59;8.50;99.90
16417;DHT22;8317;52.186;5.688;2023-04-06T13:32:26;8.50;99.90
16417;DHT22;8317;52.186;5.688;2023-04-06T13:34:56;8.50;99.90
16417;DHT22;8317;52.186;5.688;2023-04-06T13:37:23;8.60;99.90
16417;DHT22;8317;52.186;5.688;2023-04-06T13:39:50;8.50;99.90
16417;DHT22;8317;52.186;5.688;2023-04-06T13:42:17;8.40;99.90
16417;DHT22;8317;52.186;5.688;2023-04-06T13:44:44;8.40;99.90
16417;DHT22;8317;52.186;5.688;2023-04-06T13:47:13;8.50;99.90
16417;DHT22;8317;52.186;5.688;2023-04-06T13:49:40;8.40;99.90
16417;DHT22;8317;52.186;5.688;2023-04-06T13:52:09;8.40;99.90
16417;DHT22;8317;52.186;5.688;2023-04-06T13:54:36;8.50;99.90
16417;DHT22;8317;52.186;5.688;2023-04-06T13:57:03;8.40;99.90
16417;DHT22;8317;52.186;5.688;2023-04-06T13:59:33;8.40;99.90
16417;DHT22;8317;52.186;5.688;2023-04-06T14:02:00;8.40;99.90
16417;DHT22;8317;52.186;5.688;2023-04-06T14:04:27;8.40;99.90
16417;DHT22;8317;52.186;5.688;2023-04-06T14:06:56;8.40;99.90
16417;DHT22;8317;52.186;5.688;2023-04-06T14:09:24;8.30;99.90
16417;DHT22;8317;52.186;5.688;2023-04-06T14:11:51;8.40;99.90
16417;DHT22;8317;52.186;5.688;2023-04-06T14:14:22;8.40;99.90
16417;DHT22;8317;52.186;5.688;2023-04-06T14:16:50;8.30;99.90
16417;DHT22;8317;52.186;5.688;2023-04-06T14:19:17;8.20;99.90
16417;DHT22;8317;52.186;5.688;2023-04-06T14:21:45;8.20;99.90
16417;DHT22;8317;52.186;5.688;2023-04-06T14:24:12;8.20;99.90
16417;DHT22;8317;52.186;5.688;2023-04-06T14:26:41;8.20;99.90
16417;DHT22;8317;52.186;5.688;2023-04-06T14:29:08;8.20;99.90
16417;DHT22;8317;52.186;5.688;2023-04-06T14:31:36;8.30;99.90
16417;DHT22;8317;52.186;5.688;2023-04-06T14:34:03;8.30;99.90
16417;DHT22;8317;52.186;5.688;2023-04-06T14:36:31;8.30;99.90
16417;DHT22;8317;52.186;5.688;2023-04-06T14:39:02;8.30;99.90
16417;DHT22;8317;52.186;5.688;2023-04-06T14:41:29;8.30;99.90
16417;DHT22;8317;52.186;5.688;2023-04-06T14:43:58;8.30;99.90
16417;DHT22;8317;52.186;5.688;2023-04-06T14:46:25;8.30;99.90
16417;DHT22;8317;52.186;5.688;2023-04-06T14:48:54;8.20;99.90
16417;DHT22;8317;52.186;5.688;2023-04-06T14:51:21;8.20;99.90
16417;DHT22;8317;52.186;5.688;2023-04-06T14:53:48;8.10;99.90
16417;DHT22;8317;52.186;5.688;2023-04-06T14:56:19;8.20;99.90
16417;DHT22;8317;52.186;5.688;2023-04-06T14:58:47;8.10;99.90
16417;DHT22;8317;52.186;5.688;2023-04-06T15:01:15;8.20;99.90
16417;DHT22;8317;52.186;5.688;2023-04-06T15:03:42;8.10;99.90
16417;DHT22;8317;52.186;5.688;2023-04-06T15:06:12;8.10;99.90
16417;DHT22;8317;52.186;5.688;2023-04-06T15:08:41;8.10;99.90
16417;DHT22;8317;52.186;5.688;2023-04-06T15:11:08;8.10;99.90
16417;DHT22;8317;52.186;5.688;2023-04-06T15:13:35;8.10;99.90
16417;DHT22;8317;52.186;5.688;2023-04-06T15:16:02;8.10;99.90
16417;DHT22;8317;52.186;5.688;2023-04-06T15:18:30;8.20;99.90
16417;DHT22;8317;52.186;5.688;2023-04-06T15:20:57;8.10;99.90
16417;DHT22;8317;52.186;5.688;2023-04-06T15:23:24;8.10;99.90
16417;DHT22;8317;52.186;5.688;2023-04-06T15:25:52;8.10;99.90
16417;DHT22;8317;52.186;5.688;2023-04-06T15:28:18;8.00;99.90
16417;DHT22;8317;52.186;5.688;2023-04-06T15:30:45;8.00;99.90
16417;DHT22;8317;52.186;5.688;2023-04-06T15:33:12;8.00;99.90
16417;DHT22;8317;52.186;5.688;2023-04-06T15:35:41;8.00;99.90
16417;DHT22;8317;52.186;5.688;2023-04-06T15:38:08;8.10;99.90
16417;DHT22;8317;52.186;5.688;2023-04-06T15:40:42;8.00;99.90
16417;DHT22;8317;52.186;5.688;2023-04-06T15:43:09;8.00;99.90
16417;DHT22;8317;52.186;5.688;2023-04-06T15:45:37;8.00;99.90
16417;DHT22;8317;52.186;5.688;2023-04-06T15:48:04;8.10;99.90
16417;DHT22;8317;52.186;5.688;2023-04-06T15:50:32;8.00;99.90
16417;DHT22;8317;52.186;5.688;2023-04-06T15:53:00;8.00;99.90
16417;DHT22;8317;52.186;5.688;2023-04-06T15:55:27;8.00;99.90
16417;DHT22;8317;52.186;5.688;2023-04-06T15:57:54;8.00;99.90
16417;DHT22;8317;52.186;5.688;2023-04-06T16:00:21;8.00;99.90
16417;DHT22;8317;52.186;5.688;2023-04-06T16:02:48;8.00;99.90